Time;durP1;ratioP1;P1;durP2;ratioP2;P2;SDS_P1;SDS_P2;PMS_P1;PMS_P2;Temp;Humidity;BMP_temperature;BMP_pressure;BME280_temperature;BME280_humidity;BME280_pressure;Samples;Min_cycle;Max_cycle;Signal;HPM_P1;HPM_P2
2021/04/05 00:00:36;;;;;;;41.45;14.35;;;;;;;4.66;100.00;101314.63;6135193;23;20013;-80
2021/04/05 00:03:02;;;;;;;38.58;15.32;;;;;;;4.61;100.00;101306.84;6162148;23;20033;-80
2021/04/05 00:05:32;;;;;;;33.95;15.00;;;;;;;4.62;100.00;101308.59;6162481;23;20060;-80
2021/04/05 00:07:58;;;;;;;32.58;15.13;;;;;;;4.55;100.00;101295.59;6162978;23;20451;-80
2021/04/05 00:10:46;;;;;;;43.42;15.45;;;;;;;4.51;100.00;101286.91;6164198;23;20017;-80
2021/04/05 00:13:16;;;;;;;36.28;14.35;;;;;;;4.59;100.00;101284.19;6163144;23;20045;-80
2021/04/05 00:15:42;;;;;;;35.50;14.27;;;;;;;4.50;100.00;101277.31;6162250;23;20013;-80
2021/04/05 00:18:08;;;;;;;40.80;16.17;;;;;;;4.47;100.00;101293.09;6162244;23;20018;-80
2021/04/05 00:20:37;;;;;;;30.63;13.77;;;;;;;4.56;100.00;101261.53;6161940;23;20001;-80
2021/04/05 00:23:03;;;;;;;34.65;15.43;;;;;;;4.51;100.00;101268.56;6162163;23;20080;-79
2021/04/05 00:25:29;;;;;;;41.17;14.38;;;;;;;4.53;100.00;101263.34;6163368;23;20084;-81
2021/04/05 00:27:54;;;;;;;40.33;16.40;;;;;;;4.53;100.00;101261.59;6137691;23;20325;-80
2021/04/05 00:30:25;;;;;;;34.20;13.82;;;;;;;4.45;100.00;101252.94;6164203;23;20400;-80
2021/04/05 00:32:51;;;;;;;33.92;15.60;;;;;;;4.57;100.00;101250.19;6163410;23;20001;-80
2021/04/05 00:35:22;;;;;;;35.92;12.43;;;;;;;4.59;100.00;101264.13;6162935;23;20009;-80
2021/04/05 00:37:49;;;;;;;39.42;15.20;;;;;;;4.57;100.00;101267.66;6162378;23;20013;-81
2021/04/05 00:40:19;;;;;;;36.55;13.32;;;;;;;4.59;100.00;101260.63;6162999;23;20324;-80
2021/04/05 00:42:45;;;;;;;51.72;16.20;;;;;;;4.52;100.00;101252.00;6136350;23;19998;-80
2021/04/05 00:45:14;;;;;;;34.45;14.27;;;;;;;4.55;100.00;101253.69;6137791;23;20339;-79
2021/04/05 00:47:42;;;;;;;37.88;13.73;;;;;;;4.50;100.00;101245.91;6163149;23;20683;-80
2021/04/05 00:50:11;;;;;;;39.13;15.65;;;;;;;4.54;100.00;101247.59;6162733;23;20009;-80
2021/04/05 00:52:37;;;;;;;35.15;15.60;;;;;;;4.47;100.00;101242.44;6162779;23;20068;-80
2021/04/05 00:55:05;;;;;;;38.47;14.45;;;;;;;4.41;100.00;101230.31;6163847;23;20027;-80
2021/04/05 00:57:34;;;;;;;37.17;14.13;;;;;;;4.41;100.00;101219.84;6168985;23;20029;-81
2021/04/05 01:00:00;;;;;;;39.13;16.13;;;;;;;4.44;100.00;101226.81;6165649;23;20096;-80
2021/04/05 01:02:26;;;;;;;36.47;14.77;;;;;;;4.45;100.00;101218.06;6163979;23;20002;-80
2021/04/05 01:04:51;;;;;;;47.53;16.88;;;;;;;4.40;100.00;101200.66;6137163;23;20184;-80
2021/04/05 01:07:16;;;;;;;48.38;17.08;;;;;;;4.37;100.00;101219.03;6162528;23;20694;-80
2021/04/05 01:09:41;;;;;;;36.03;18.20;;;;;;;4.44;100.00;101209.34;6162366;23;20128;-80
2021/04/05 01:12:07;;;;;;;43.47;16.10;;;;;;;4.42;100.00;101205.91;6162562;23;20005;-80
2021/04/05 01:14:33;;;;;;;35.38;16.40;;;;;;;4.37;100.00;101205.09;6136977;23;20002;-80
2021/04/05 01:16:58;;;;;;;39.78;15.75;;;;;;;4.47;100.00;101198.84;6162571;23;20387;-79
2021/04/05 01:19:25;;;;;;;45.50;18.17;;;;;;;4.47;100.00;101198.84;6162375;23;20005;-80
2021/04/05 01:21:50;;;;;;;52.72;18.45;;;;;;;4.49;100.00;101204.91;6162342;23;20005;-80
2021/04/05 01:24:16;;;;;;;39.20;17.15;;;;;;;4.60;100.00;101199.53;6135854;23;20463;-81
2021/04/05 01:26:41;;;;;;;35.70;15.40;;;;;;;4.72;100.00;101188.00;6162207;23;20009;-80
2021/04/05 01:29:07;;;;;;;59.42;20.13;;;;;;;4.78;100.00;101186.19;6162889;23;20002;-80
2021/04/05 01:31:33;;;;;;;44.72;17.67;;;;;;;4.84;100.00;101177.34;6137263;23;20005;-80
2021/04/05 01:33:58;;;;;;;52.17;18.63;;;;;;;4.92;100.00;101167.63;6162798;23;20001;-80
2021/04/05 01:36:23;;;;;;;29.70;12.93;;;;;;;5.11;100.00;101160.31;6165553;23;20005;-80
2021/04/05 01:38:51;;;;;;;40.20;18.20;;;;;;;5.15;100.00;101141.03;6168371;23;20006;-80
2021/04/05 01:41:27;;;;;;;46.55;18.70;;;;;;;5.22;100.00;101136.56;6167142;23;20084;-80
2021/04/05 01:43:52;;;;;;;;;;;;;;;5.27;100.00;101134.72;6167464;23;20001;-80
2021/04/05 01:46:19;;;;;;;50.00;17.77;;;;;;;5.34;100.00;101121.47;6163463;23;19915;-79
2021/04/05 01:48:45;;;;;;;44.75;17.70;;;;;;;5.51;100.00;101128.16;6162004;23;20012;-79
2021/04/05 01:51:22;;;;;;;51.15;17.42;;;;;;;5.54;100.00;101115.88;6162241;23;20029;-79
2021/04/05 01:53:49;;;;;;;44.10;18.92;;;;;;;5.62;100.00;101119.22;6164056;23;20009;-81
2021/04/05 01:56:16;;;;;;;38.35;16.65;;;;;;;5.68;100.00;101116.47;6162361;23;20002;-80
2021/04/05 01:58:44;;;;;;;40.22;17.27;;;;;;;5.67;100.00;101116.47;6160920;23;20017;-80
2021/04/05 02:01:12;;;;;;;56.13;18.38;;;;;;;5.71;100.00;101111.16;6160796;23;20060;-80
2021/04/05 02:03:38;;;;;;;56.30;19.98;;;;;;;5.65;100.00;101105.16;6162630;23;20076;-79
2021/04/05 02:06:08;;;;;;;46.70;18.10;;;;;;;5.61;100.00;101106.97;6164022;23;20056;-80
2021/04/05 02:08:33;;;;;;;49.35;19.08;;;;;;;5.59;100.00;101103.53;6163653;23;20331;-80
2021/04/05 02:11:05;;;;;;;59.50;19.98;;;;;;;5.57;100.00;101086.97;6162080;23;20084;-80
2021/04/05 02:13:30;;;;;;;56.17;20.20;;;;;;;5.53;100.00;101087.06;6161468;23;20009;-80
2021/04/05 02:15:56;;;;;;;52.55;20.52;;;;;;;5.52;100.00;101077.44;6160899;23;20384;-80
2021/04/05 02:18:23;;;;;;;56.97;20.23;;;;;;;5.44;100.00;101080.25;6159696;23;20013;-79
2021/04/05 02:20:50;;;;;;;51.60;17.25;;;;;;;5.46;100.00;101074.06;6162382;23;20083;-80
2021/04/05 02:23:17;;;;;;;59.92;20.33;;;;;;;5.50;100.00;101071.38;6141840;23;20009;-80
2021/04/05 02:28:30;;;;;;;59.97;19.13;;;;;;;5.55;100.00;101059.91;6161368;23;20036;-80
2021/04/05 02:30:56;;;;;;;70.18;19.83;;;;;;;5.52;100.00;101049.47;6161301;23;20010;-80
2021/04/05 02:33:22;;;;;;;53.83;18.88;;;;;;;5.53;100.00;101043.34;6162413;23;20977;-79
2021/04/05 02:35:47;;;;;;;54.08;20.40;;;;;;;5.53;100.00;101045.97;6161490;23;20005;-79
2021/04/05 02:38:13;;;;;;;60.08;20.20;;;;;;;5.45;100.00;101034.78;6135873;23;20005;-80
2021/04/05 02:40:41;;;;;;;66.57;19.33;;;;;;;5.45;100.00;101019.91;6162039;23;20005;-80
2021/04/05 02:43:06;;;;;;;64.65;19.33;;;;;;;5.56;100.00;101018.81;6162171;23;20043;-80
2021/04/05 02:45:31;;;;;;;53.90;19.02;;;;;;;5.60;100.00;101023.09;6162719;23;20001;-80
2021/04/05 02:47:59;;;;;;;63.72;18.70;;;;;;;5.68;100.00;101008.94;6135581;23;20013;-79
2021/04/05 02:50:27;;;;;;;63.70;17.75;;;;;;;5.68;100.00;100995.84;6162237;23;20016;-80
2021/04/05 02:52:55;;;;;;;47.28;16.48;;;;;;;5.81;100.00;100992.94;6164908;23;20002;-80
2021/04/05 02:55:23;;;;;;;47.33;16.30;;;;;;;5.96;100.00;100997.88;6168824;23;20059;-81
2021/04/05 02:57:48;;;;;;;44.22;17.00;;;;;;;5.97;100.00;100995.22;6164006;23;20008;-81
2021/04/05 03:00:17;;;;;;;52.28;15.50;;;;;;;6.07;100.00;100985.34;6167455;23;20005;-81
2021/04/05 03:02:46;;;;;;;49.80;15.77;;;;;;;6.15;100.00;100982.56;6166166;23;19993;-81
2021/04/05 03:05:12;;;;;;;49.70;15.70;;;;;;;6.29;100.00;100967.34;6166110;23;20009;-80
2021/04/05 03:07:38;;;;;;;47.50;15.02;;;;;;;6.34;100.00;100980.34;6163895;23;19997;-80
2021/04/05 03:10:09;;;;;;;46.75;14.82;;;;;;;6.39;100.00;100970.59;6138019;23;20152;-80
2021/04/05 03:12:36;;;;;;;48.72;15.40;;;;;;;6.48;100.00;100957.25;6164314;23;20005;-81
2021/04/05 03:15:11;;;;;;;56.17;15.48;;;;;;;6.45;100.00;100952.91;6163892;23;20007;-80
2021/04/05 03:17:37;;;;;;;49.28;15.15;;;;;;;6.47;100.00;100964.22;6163502;23;20026;-81
2021/04/05 03:20:06;;;;;;;36.97;14.85;;;;;;;6.51;100.00;100948.41;6164499;23;20006;-81
2021/04/05 03:22:32;;;;;;;38.78;12.25;;;;;;;6.66;100.00;100954.13;6138047;23;20002;-81
2021/04/05 03:24:57;;;;;;;49.17;14.82;;;;;;;6.79;100.00;100951.19;6163670;23;20006;-80
2021/04/05 03:27:23;;;;;;;37.42;12.68;;;;;;;6.79;100.00;100945.94;6163435;23;20734;-80
2021/04/05 03:29:49;;;;;;;39.03;12.63;;;;;;;6.88;100.00;100943.06;6163405;23;20109;-80
2021/04/05 03:32:17;;;;;;;36.42;12.75;;;;;;;6.86;100.00;100934.34;6163069;23;20005;-80
2021/04/05 03:34:52;;;;;;;43.53;14.32;;;;;;;6.74;100.00;100925.03;6163613;23;20732;-80
2021/04/05 03:37:21;;;;;;;39.95;13.45;;;;;;;6.84;100.00;100929.13;6163032;23;20722;-80
2021/04/05 03:39:50;;;;;;;37.75;14.65;;;;;;;6.88;100.00;100922.03;6163474;23;20072;-80
2021/04/05 03:42:25;;;;;;;34.28;13.40;;;;;;;6.88;100.00;100916.78;6162438;23;20033;-80
2021/04/05 03:44:59;;;;;;;38.60;13.30;;;;;;;6.91;100.00;100908.81;6161858;23;20025;-80
2021/04/05 03:47:40;;;;;;;46.95;14.48;;;;;;;6.90;100.00;100910.56;6163590;23;20005;-80
2021/04/05 03:50:22;;;;;;;42.60;14.80;;;;;;;6.96;100.00;100905.13;6163458;23;20440;-81
2021/04/05 03:52:51;;;;;;;44.58;15.00;;;;;;;7.03;100.00;100897.06;6162577;23;20040;-80
2021/04/05 03:55:22;;;;;;;38.72;14.35;;;;;;;6.97;100.00;100890.22;6135977;23;20009;-80
2021/04/05 03:57:49;;;;;;;34.00;15.60;;;;;;;7.03;100.00;100883.94;6135226;23;20005;-79
2021/04/05 04:00:19;;;;;;;34.58;12.02;;;;;;;7.15;100.00;100887.06;6162173;23;20013;-80
2021/04/05 04:02:50;;;;;;;39.75;13.57;;;;;;;7.14;100.00;100895.88;6162670;23;20020;-81
2021/04/05 04:08:09;;;;;;;25.38;10.95;;;;;;;7.36;100.00;100887.34;6174102;23;20332;-81
2021/04/05 04:10:37;;;;;;;17.02;9.30;;;;;;;7.46;100.00;100884.38;6169352;23;20029;-80
2021/04/05 04:13:11;;;;;;;31.17;9.85;;;;;;;7.56;100.00;100879.69;6169701;23;20076;-80
2021/04/05 04:15:37;;;;;;;23.73;9.65;;;;;;;7.61;100.00;100879.53;6166248;23;20007;-81
2021/04/05 04:18:03;;;;;;;20.13;9.18;;;;;;;7.64;100.00;100882.09;6111861;23;20022;-80
2021/04/05 04:20:30;;;;;;;26.42;10.02;;;;;;;7.65;100.00;100873.28;6135242;23;20002;-80
2021/04/05 04:22:57;;;;;;;28.63;9.88;;;;;;;7.67;100.00;100869.69;6136006;23;20668;-80
2021/04/05 04:25:25;;;;;;;21.58;10.43;;;;;;;7.66;100.00;100865.34;6135773;23;20006;-80
2021/04/05 04:27:51;;;;;;;26.33;10.35;;;;;;;7.63;100.00;100857.56;6134787;23;20002;-80
2021/04/05 04:30:33;;;;;;;22.35;10.38;;;;;;;7.66;100.00;100851.31;6135955;23;20026;-80
2021/04/05 04:33:04;;;;;;;35.00;12.10;;;;;;;7.59;100.00;100850.69;6109203;23;20057;-80
2021/04/05 04:35:30;;;;;;;28.63;10.32;;;;;;;7.67;100.00;100855.66;6134240;23;20002;-80
2021/04/05 04:37:56;;;;;;;27.25;10.32;;;;;;;7.61;100.00;100845.34;6133246;23;20305;-80
2021/04/05 04:40:23;;;;;;;18.67;9.70;;;;;;;7.56;100.00;100837.59;6133147;23;20017;-80
2021/04/05 04:42:51;;;;;;;25.05;11.27;;;;;;;7.52;100.00;100841.25;6107462;23;20006;-80
2021/04/05 04:45:18;;;;;;;26.13;11.52;;;;;;;7.41;100.00;100825.81;6133874;23;20006;-80
2021/04/05 04:47:44;;;;;;;29.70;10.90;;;;;;;7.40;100.00;100829.34;6133356;23;20001;-79
2021/04/05 04:50:12;;;;;;;28.52;10.95;;;;;;;7.43;100.00;100810.84;6133630;23;20005;-80
2021/04/05 04:52:38;;;;;;;38.40;12.90;;;;;;;7.44;100.00;100807.31;6133603;23;20006;-80
2021/04/05 04:55:04;;;;;;;15.63;7.78;;;;;;;7.50;100.00;100822.03;6108511;23;20262;-80
2021/04/05 04:57:29;;;;;;;17.85;8.38;;;;;;;7.48;100.00;100803.69;6156858;23;20005;-81
2021/04/05 04:59:56;;;;;;;26.92;9.70;;;;;;;7.49;100.00;100796.66;6141234;23;20017;-81
2021/04/05 05:02:22;;;;;;;33.10;11.90;;;;;;;7.48;100.00;100792.28;6141626;23;20006;-80
2021/04/05 05:04:48;;;;;;;30.10;11.55;;;;;;;7.50;100.00;100793.09;6139798;23;20006;-81
2021/04/05 05:07:15;;;;;;;20.58;7.70;;;;;;;7.49;100.00;100786.97;6132381;23;20112;-81
2021/04/05 05:09:41;;;;;;;19.80;10.38;;;;;;;7.41;100.00;100778.47;6128991;23;20009;-81
2021/04/05 05:12:07;;;;;;;23.35;10.10;;;;;;;7.46;100.00;100788.84;6126971;23;20009;-81
2021/04/05 05:14:32;;;;;;;27.17;11.27;;;;;;;7.47;100.00;100778.28;6101807;23;20014;-80
2021/04/05 05:16:58;;;;;;;33.65;10.88;;;;;;;7.52;100.00;100772.84;6130733;23;20571;-80
2021/04/05 05:19:23;;;;;;;24.90;10.38;;;;;;;7.50;100.00;100761.53;6158146;23;20014;-80
2021/04/05 05:21:51;;;;;;;22.98;9.55;;;;;;;7.59;100.00;100765.66;6130175;23;20025;-80
2021/04/05 05:24:22;;;;;;;19.13;8.95;;;;;;;7.58;100.00;100783.19;6155050;23;20009;-79
2021/04/05 05:26:49;;;;;;;33.70;10.15;;;;;;;7.49;100.00;100760.69;6128217;23;20013;-80
2021/04/05 05:29:18;;;;;;;26.17;8.27;;;;;;;7.46;100.00;100766.03;6154210;23;20005;-80
2021/04/05 05:31:44;;;;;;;20.85;9.10;;;;;;;7.35;100.00;100789.19;6153779;23;20006;-79
2021/04/05 05:34:17;;;;;;;22.95;6.20;;;;;;;-145.48;100.00;59605.97;6156239;23;20005;-80
2021/04/05 05:36:44;;;;;;;10.40;2.20;;;;;;;5.95;100.00;100831.72;6163049;23;20005;-81
2021/04/05 05:39:11;;;;;;;11.63;2.22;;;;;;;5.74;100.00;100834.00;6158279;23;20025;-80
2021/04/05 05:41:51;;;;;;;11.23;2.50;;;;;;;5.63;100.00;100840.38;6156896;23;20328;-80
2021/04/05 05:44:31;;;;;;;14.02;1.80;;;;;;;5.53;100.00;100833.63;6153656;23;20431;-80
2021/04/05 05:47:06;;;;;;;8.10;1.15;;;;;;;5.46;100.00;100853.00;6153704;23;20072;-79
2021/04/05 05:50:02;;;;;;;9.20;2.15;;;;;;;5.45;100.00;100852.13;6155061;23;20028;-80
2021/04/05 05:52:39;;;;;;;13.52;2.22;;;;;;;5.39;100.00;100860.16;6155553;23;20055;-79
2021/04/05 05:55:26;;;;;;;7.18;1.45;;;;;;;5.28;100.00;100840.31;6155497;23;20001;-80
2021/04/05 05:58:03;;;;;;;12.80;2.97;;;;;;;5.31;100.00;100842.88;6127656;23;20013;-80
2021/04/05 06:00:38;;;;;;;10.02;2.03;;;;;;;5.28;100.00;100843.81;6153657;23;20002;-79
2021/04/05 06:03:28;;;;;;;6.80;1.38;;;;;;;5.32;100.00;100855.97;6127056;23;20009;-79
2021/04/05 06:05:54;;;;;;;11.15;1.70;;;;;;;5.34;100.00;100863.78;6153578;23;20465;-79
2021/04/05 06:08:46;;;;;;;9.93;1.73;;;;;;;5.29;100.00;100863.88;6153491;23;20029;-79
2021/04/05 06:11:34;;;;;;;13.93;2.30;;;;;;;5.32;100.00;100869.06;6126638;23;20010;-79
2021/04/05 06:14:29;;;;;;;12.35;2.03;;;;;;;5.18;100.00;100869.34;6152359;23;20004;-80
2021/04/05 06:17:01;;;;;;;18.98;2.50;;;;;;;5.14;100.00;100875.56;6127364;23;20020;-80
2021/04/05 06:19:42;;;;;;;16.13;3.00;;;;;;;5.09;100.00;100868.69;6153858;23;20005;-80
2021/04/05 06:22:19;;;;;;;20.25;2.65;;;;;;;5.00;100.00;100859.25;6153360;23;20344;-80
2021/04/05 06:25:09;;;;;;;10.75;1.77;;;;;;;5.01;100.00;100862.75;6153443;23;20009;-80
2021/04/05 06:27:50;;;;;;;16.05;2.40;;;;;;;4.98;100.00;100873.28;6152246;23;20026;-80
2021/04/05 06:30:25;;;;;;;12.00;1.58;;;;;;;4.98;100.00;100866.28;6152502;23;20074;-80
2021/04/05 06:32:55;;;;;;;11.43;2.05;;;;;;;5.00;100.00;100856.63;6152520;23;20020;-79
2021/04/05 06:35:35;;;;;;;11.07;2.33;;;;;;;5.02;100.00;100862.72;6153320;23;20084;-78
2021/04/05 06:38:27;;;;;;;9.15;2.28;;;;;;;5.00;100.00;100874.97;6152966;23;20005;-78
2021/04/05 06:40:57;;;;;;;7.05;1.88;;;;;;;4.97;100.00;100884.66;6153897;23;20032;-79
2021/04/05 06:43:49;;;;;;;15.63;2.72;;;;;;;5.01;100.00;100884.56;6153723;23;20084;-79
2021/04/05 06:46:22;;;;;;;4.70;1.83;;;;;;;4.87;100.00;100897.94;6154606;23;20004;-79
2021/04/05 06:49:25;;;;;;;10.75;2.13;;;;;;;4.77;100.00;100912.13;6126592;23;20016;-80
2021/04/05 06:51:57;;;;;;;8.85;1.45;;;;;;;4.23;100.00;100917.47;6150719;23;20718;-79
2021/04/05 06:55:00;;;;;;;8.02;2.38;;;;;;;4.08;100.00;100944.75;6151070;23;20052;-79
2021/04/05 06:57:42;;;;;;;12.02;1.35;;;;;;;4.07;100.00;100936.94;6150982;23;20005;-80
2021/04/05 07:00:22;;;;;;;8.75;1.15;;;;;;;3.94;100.00;100965.00;6152228;23;20389;-80
2021/04/05 07:03:05;;;;;;;10.13;1.40;;;;;;;3.73;100.00;100994.09;6146608;23;20006;-79
2021/04/05 07:06:11;;;;;;;16.02;2.22;;;;;;;3.52;100.00;100980.44;6124589;23;20101;-80
2021/04/05 07:08:49;;;;;;;27.80;3.53;;;;;;;3.57;100.00;100980.38;6034191;23;20149;-80
2021/04/05 07:11:21;;;;;;;17.00;2.35;;;;;;;3.59;100.00;100978.59;6060140;23;20010;-79
2021/04/05 07:14:11;;;;;;;20.60;3.60;;;;;;;3.67;100.00;100991.56;6060118;23;20015;-80
2021/04/05 07:16:48;;;;;;;18.63;2.80;;;;;;;3.64;100.00;100982.00;6059631;23;20030;-79
2021/04/05 07:19:36;;;;;;;;;;;;;;;3.72;100.00;100989.75;6060474;23;20414;-80
2021/04/05 07:22:32;;;;;;;15.40;2.95;;;;;;;3.75;100.00;100989.69;6037109;23;19969;-79
2021/04/05 07:25:08;;;;;;;19.50;3.35;;;;;;;3.84;100.00;100994.78;6059019;23;20169;-80
2021/04/05 07:27:55;;;;;;;11.57;2.50;;;;;;;3.61;100.00;101042.16;6035103;23;20015;-78
2021/04/05 07:30:36;;;;;;;14.02;2.30;;;;;;;3.28;100.00;101056.50;6059871;23;20677;-80
2021/04/05 07:33:22;;;;;;;19.70;3.88;;;;;;;3.12;100.00;101037.50;6061109;23;20015;-79
2021/04/05 07:35:55;;;;;;;17.90;3.90;;;;;;;3.14;100.00;101051.41;6038368;23;20010;-79
2021/04/05 07:38:35;;;;;;;22.67;3.72;;;;;;;3.11;100.00;101044.47;6059088;23;20010;-80
2021/04/05 07:41:07;;;;;;;20.02;3.25;;;;;;;3.18;100.00;101052.25;6060349;23;20019;-80
2021/04/05 07:44:00;;;;;;;23.45;3.15;;;;;;;3.27;100.00;101055.63;6035965;23;20015;-78
2021/04/05 07:46:47;;;;;;;17.92;3.60;;;;;;;3.45;100.00;101057.16;6154497;23;20107;-79
2021/04/05 07:49:28;;;;;;;16.88;3.03;;;;;;;3.35;100.00;101065.97;6157076;23;20431;-80
2021/04/05 07:52:00;;;;;;;28.75;4.47;;;;;;;3.40;100.00;101052.88;6129088;23;20063;-80
2021/04/05 07:54:33;;;;;;;18.13;3.42;;;;;;;3.38;100.00;101065.97;6155560;23;20490;-79
2021/04/05 07:57:28;;;;;;;18.67;3.42;;;;;;;3.41;100.00;101080.72;6151854;23;20001;-79
2021/04/05 08:00:17;;;;;;;19.50;4.28;;;;;;;3.47;100.00;101065.84;6152710;23;20637;-80
2021/04/05 08:03:01;;;;;;;16.05;1.90;;;;;;;3.57;100.00;101090.13;6152384;23;20002;-80
2021/04/05 08:05:37;;;;;;;14.57;3.33;;;;;;;3.75;100.00;101081.19;6153602;23;20006;-80
2021/04/05 08:08:17;;;;;;;15.23;2.78;;;;;;;4.00;100.00;101079.13;6153672;23;20145;-80
2021/04/05 08:11:04;;;;;;;7.85;2.88;;;;;;;4.03;100.00;101086.94;6151363;23;20704;-79
2021/04/05 08:13:55;;;;;;;10.02;2.88;;;;;;;3.95;100.00;101096.63;6127569;23;20009;-79
2021/04/05 08:16:29;;;;;;;20.05;3.47;;;;;;;3.97;100.00;101110.56;6153277;23;20444;-79
2021/04/05 08:19:11;;;;;;;12.60;1.92;;;;;;;4.01;100.00;101096.53;6156177;23;20012;-79
2021/04/05 08:21:44;;;;;;;18.10;3.35;;;;;;;4.17;100.00;101103.31;6158830;23;20403;-79
2021/04/05 08:24:22;;;;;;;13.35;2.95;;;;;;;4.17;100.00;101119.00;6155378;23;20029;-79
2021/04/05 08:26:58;;;;;;;11.82;3.03;;;;;;;4.09;100.00;101124.34;6155258;23;20016;-79
2021/04/05 08:29:37;;;;;;;26.15;3.22;;;;;;;3.31;100.00;101154.00;6153842;23;20033;-80
2021/04/05 08:32:11;;;;;;;11.27;2.05;;;;;;;3.17;100.00;101163.69;6151212;23;20009;-80
2021/04/05 08:34:55;;;;;;;5.97;1.80;;;;;;;3.32;100.00;101155.72;6153404;23;20079;-79
2021/04/05 08:37:46;;;;;;;19.20;2.10;;;;;;;3.54;100.00;101150.28;6152793;23;20344;-79
2021/04/05 08:40:30;;;;;;;10.13;1.83;;;;;;;3.87;100.00;101147.28;6152847;23;20005;-80
2021/04/05 08:43:36;;;;;;;16.40;2.28;;;;;;;3.82;100.00;101141.25;6126220;23;20296;-79
2021/04/05 08:46:01;;;;;;;7.20;2.13;;;;;;;3.85;100.00;101148.16;6152465;23;20032;-80
2021/04/05 08:48:30;;;;;;;10.20;1.53;;;;;;;3.89;100.00;101136.81;6153096;23;20001;-79
2021/04/05 08:51:02;;;;;;;17.58;2.38;;;;;;;4.19;100.00;101151.25;6152675;23;20227;-80
2021/04/05 08:53:32;;;;;;;7.78;1.63;;;;;;;4.34;100.00;101147.56;6153783;23;20033;-78
2021/04/05 08:55:59;;;;;;;19.05;2.75;;;;;;;4.37;100.00;101142.28;6127233;23;20012;-79
2021/04/05 08:58:35;;;;;;;8.82;1.83;;;;;;;4.45;100.00;101163.97;6154294;23;20005;-79
2021/04/05 09:01:04;;;;;;;9.38;1.80;;;;;;;4.88;100.00;101163.34;6152788;23;20003;-78
2021/04/05 09:03:32;;;;;;;3.22;1.10;;;;;;;4.73;100.00;101168.81;6153930;23;20076;-78
2021/04/05 09:05:59;;;;;;;15.98;2.10;;;;;;;4.75;100.00;101153.94;6153525;23;20001;-79
2021/04/05 09:08:26;;;;;;;19.15;4.00;;;;;;;4.76;100.00;101189.69;6154973;23;20012;-78
2021/04/05 09:11:01;;;;;;;13.52;1.77;;;;;;;4.45;100.00;101197.97;6155597;23;20005;-79
2021/04/05 09:13:47;;;;;;;9.80;1.98;;;;;;;4.33;100.00;101217.34;6151939;23;20017;-77
2021/04/05 09:16:21;;;;;;;4.85;0.95;;;;;;;4.04;100.00;101211.59;6149827;23;20080;-77
2021/04/05 09:18:55;;;;;;;7.50;1.10;;;;;;;3.97;100.00;101216.03;6123913;23;20037;-77
2021/04/05 09:21:44;;;;;;;5.20;1.63;;;;;;;4.06;100.00;101221.13;6126129;23;20031;-77
2021/04/05 09:24:25;;;;;;;9.85;1.63;;;;;;;3.87;100.00;101222.25;6149599;23;20009;-77
2021/04/05 09:27:05;;;;;;;6.40;1.30;;;;;;;4.18;100.00;101221.91;6150885;23;20657;-77
2021/04/05 09:29:41;;;;;;;12.52;1.70;;;;;;;4.05;100.00;101237.72;6152682;23;20005;-78
2021/04/05 09:32:24;;;;;;;;;;;;;;;4.08;100.00;101216.78;6153485;23;20015;-77
2021/04/05 09:35:11;;;;;;;7.18;1.15;;;;;;;4.28;100.00;101221.78;6150319;23;20279;-78
2021/04/05 09:37:48;;;;;;;11.13;2.00;;;;;;;4.18;100.00;101238.47;6148147;23;20012;-78
2021/04/05 09:40:32;;;;;;;7.68;1.67;;;;;;;4.22;100.00;101253.25;6127107;23;20009;-78
2021/04/05 09:43:08;;;;;;;3.67;1.63;;;;;;;4.25;100.00;101245.34;6153452;23;20028;-78
2021/04/05 09:45:51;;;;;;;14.00;1.65;;;;;;;4.46;100.00;101259.03;6153915;23;20001;-79
2021/04/05 09:48:32;;;;;;;12.15;2.17;;;;;;;4.65;100.00;101256.16;6129303;23;20005;-79
2021/04/05 09:51:17;;;;;;;12.63;2.53;;;;;;;4.75;100.00;101254.28;6151854;23;20040;-78
2021/04/05 09:54:07;;;;;;;9.63;2.33;;;;;;;4.53;100.00;101269.44;6152503;23;20036;-78
2021/04/05 09:56:41;;;;;;;9.43;1.83;;;;;;;4.73;100.00;101256.09;6152606;23;20060;-78
2021/04/05 09:59:09;;;;;;;16.75;3.15;;;;;;;4.71;100.00;101249.97;6151854;23;20088;-78
2021/04/05 10:01:36;;;;;;;6.28;2.03;;;;;;;4.88;100.00;101265.47;6152944;23;20029;-78
2021/04/05 10:04:08;;;;;;;11.38;2.05;;;;;;;4.68;100.00;101235.19;6153127;23;20088;-79
2021/04/05 10:06:36;;;;;;;2.65;1.35;;;;;;;4.45;99.50;101267.78;6152843;23;20371;-78
2021/04/05 10:09:06;;;;;;;7.35;1.23;;;;;;;4.40;88.47;101281.78;6151536;23;20095;-78
2021/04/05 10:11:39;;;;;;;6.32;1.40;;;;;;;4.62;88.25;101297.25;6151123;23;20016;-78
2021/04/05 10:14:07;;;;;;;10.48;2.20;;;;;;;4.62;83.97;101279.78;6149910;23;20332;-79
2021/04/05 10:16:37;;;;;;;9.05;1.83;;;;;;;5.32;84.94;101271.78;6149695;23;20025;-78
2021/04/05 10:19:16;;;;;;;12.43;2.72;;;;;;;5.16;75.79;101277.25;6150444;23;20447;-79
2021/04/05 10:21:53;;;;;;;6.30;1.73;;;;;;;4.83;78.80;101268.16;6150036;23;20005;-78
2021/04/05 10:27:42;;;;;;;11.35;1.15;;;;;;;4.56;77.83;101298.19;6151901;23;20340;-79
2021/04/05 10:30:15;;;;;;;14.98;3.58;;;;;;;4.92;82.50;101290.75;6148978;23;20024;-78
2021/04/05 10:32:42;;;;;;;10.48;2.25;;;;;;;4.42;82.45;101302.75;6141375;23;20056;-78
2021/04/05 10:35:09;;;;;;;10.25;2.17;;;;;;;4.92;84.05;101307.34;6150650;23;20067;-79
2021/04/05 10:37:40;;;;;;;12.73;2.28;;;;;;;4.72;80.40;101327.69;6151781;23;20008;-79
2021/04/05 10:40:12;;;;;;;15.60;2.85;;;;;;;4.95;74.81;101288.06;6152120;23;20065;-79
2021/04/05 10:42:42;;;;;;;10.45;2.05;;;;;;;5.92;74.30;101303.16;6153108;23;20001;-78
2021/04/05 10:45:16;;;;;;;9.90;2.67;;;;;;;6.13;71.77;101302.78;6152586;23;20377;-79
2021/04/05 10:47:51;;;;;;;13.77;1.80;;;;;;;6.13;73.29;101294.03;6126333;23;20056;-79
2021/04/05 10:50:18;;;;;;;11.93;2.40;;;;;;;7.39;70.04;101298.34;6152124;23;20010;-79
2021/04/05 10:52:47;;;;;;;9.57;2.28;;;;;;;7.39;66.50;101314.13;6153265;23;20008;-79
2021/04/05 10:55:19;;;;;;;8.32;3.03;;;;;;;7.05;60.32;101306.13;6152448;23;20028;-79
2021/04/05 10:57:51;;;;;;;14.63;2.92;;;;;;;8.75;49.56;101314.94;6124905;23;20594;-80
2021/04/05 11:00:19;;;;;;;13.02;1.55;;;;;;;6.35;53.26;101308.47;6125970;23;20420;-80
2021/04/05 11:02:54;;;;;;;8.60;2.45;;;;;;;5.87;53.03;101311.09;6152545;23;20073;-80
2021/04/05 11:05:22;;;;;;;13.37;2.73;;;;;;;5.56;55.00;101312.47;6125725;23;20002;-78
2021/04/05 11:07:53;;;;;;;19.58;2.15;;;;;;;4.81;55.20;101339.75;6126739;23;20128;-78
2021/04/05 11:10:21;;;;;;;11.30;2.33;;;;;;;3.99;68.44;101373.81;6152885;23;20005;-78
2021/04/05 11:12:52;;;;;;;12.80;2.17;;;;;;;3.71;80.90;101382.75;6153692;23;20080;-79
2021/04/05 11:15:22;;;;;;;7.93;1.67;;;;;;;2.96;86.99;101388.41;6132201;23;20416;-78
2021/04/05 11:17:52;;;;;;;5.20;1.67;;;;;;;3.75;79.29;101381.84;6152451;23;20069;-78
2021/04/05 11:20:20;;;;;;;11.10;2.45;;;;;;;7.40;61.38;101378.09;6127284;23;20009;-79
2021/04/05 11:22:52;;;;;;;10.77;2.25;;;;;;;8.13;57.80;101365.75;6156449;23;20005;-79
2021/04/05 11:25:23;;;;;;;3.90;1.60;;;;;;;8.19;56.87;101365.63;6155354;23;20116;-78
2021/04/05 11:27:53;;;;;;;9.63;3.03;;;;;;;9.58;52.04;101343.09;6155776;23;20056;-79
2021/04/05 11:30:24;;;;;;;6.40;1.48;;;;;;;6.54;57.59;101365.91;6154486;23;20059;-79
2021/04/05 11:32:51;;;;;;;12.68;1.80;;;;;;;5.89;60.56;101381.88;6128080;23;20313;-79
2021/04/05 11:35:20;;;;;;;4.38;1.10;;;;;;;4.21;60.78;101395.41;6155086;23;20008;-79
2021/04/05 11:37:46;;;;;;;4.88;1.75;;;;;;;6.54;55.15;101382.50;6155488;23;20340;-79
2021/04/05 11:40:15;;;;;;;8.38;1.65;;;;;;;7.14;53.46;101386.56;6155971;23;20315;-78
2021/04/05 11:42:46;;;;;;;6.20;1.30;;;;;;;7.83;52.73;101370.06;6155679;23;20003;-79
2021/04/05 11:45:20;;;;;;;6.43;2.40;;;;;;;6.65;56.16;101380.53;6128582;23;20009;-78
2021/04/05 11:47:49;;;;;;;8.02;2.00;;;;;;;7.26;54.44;101391.53;6155056;23;20009;-78
2021/04/05 11:50:18;;;;;;;11.23;2.20;;;;;;;8.16;53.09;101359.56;6154692;23;20010;-78